Time;durP1;ratioP1;P1;durP2;ratioP2;P2;SDS_P1;SDS_P2;PMS_P1;PMS_P2;Temp;Humidity;BMP_temperature;BMP_pressure;BME280_temperature;BME280_humidity;BME280_pressure;Samples;Min_cycle;Max_cycle;Signal;HPM_P1;HPM_P2
2022/11/07 00:00:25;;;;;;;12.47;3.67;;;14.20;95.10;;;;;;4993787;28;20203;-93
2022/11/07 00:02:53;;;;;;;8.83;2.90;;;14.20;95.10;;;;;;4995200;28;20215;-95
2022/11/07 00:05:31;;;;;;;8.00;4.00;;;14.20;95.10;;;;;;4997645;28;20227;-95
2022/11/07 00:07:58;;;;;;;9.83;3.07;;;14.20;95.10;;;;;;4987109;28;20243;-93
2022/11/07 00:10:28;;;;;;;14.77;4.80;;;14.20;95.10;;;;;;4996023;28;20901;-94
2022/11/07 00:13:02;;;;;;;15.27;3.80;;;14.20;95.10;;;;;;4983916;28;20243;-94
2022/11/07 00:15:30;;;;;;;15.97;5.13;;;14.20;95.10;;;;;;4995834;28;20621;-94
2022/11/07 00:18:00;;;;;;;12.17;3.97;;;14.20;95.10;;;;;;4995604;28;20226;-95
2022/11/07 00:20:33;;;;;;;10.63;4.37;;;14.20;95.20;;;;;;4993061;28;20212;-93
2022/11/07 00:23:03;;;;;;;12.67;3.43;;;14.20;95.20;;;;;;4994904;28;20647;-91
2022/11/07 00:25:34;;;;;;;13.20;3.90;;;14.20;95.10;;;;;;4994391;28;20255;-90
2022/11/07 00:28:04;;;;;;;18.40;5.60;;;14.20;95.20;;;;;;4990334;28;20233;-92
2022/11/07 00:30:31;;;;;;;9.60;3.37;;;14.10;95.20;;;;;;4998163;28;20217;-92
2022/11/07 00:32:59;;;;;;;12.30;3.30;;;14.10;95.20;;;;;;4995113;28;20216;-92
2022/11/07 00:35:29;;;;;;;10.33;3.30;;;14.20;95.30;;;;;;4997428;28;20235;-92
2022/11/07 00:37:58;;;;;;;9.17;3.07;;;14.20;95.40;;;;;;4995553;28;20633;-91
2022/11/07 00:40:26;;;;;;;9.70;3.20;;;14.20;95.20;;;;;;4995664;28;20212;-92
2022/11/07 00:42:55;;;;;;;15.10;4.37;;;14.20;95.30;;;;;;4993444;28;20224;-93
2022/11/07 00:45:23;;;;;;;16.70;4.60;;;14.10;95.30;;;;;;4995216;28;20235;-92
2022/11/07 00:47:51;;;;;;;12.90;4.00;;;14.10;95.30;;;;;;4996810;28;20249;-91
2022/11/07 00:50:20;;;;;;;13.17;4.13;;;14.10;95.30;;;;;;4997685;28;20227;-91
2022/11/07 00:52:49;;;;;;;7.93;3.10;;;14.10;95.40;;;;;;4993206;28;20263;-92
2022/11/07 00:55:24;;;;;;;7.87;3.00;;;14.10;95.40;;;;;;4998925;28;20946;-89
2022/11/07 00:58:01;;;;;;;13.30;4.37;;;14.10;95.30;;;;;;4982654;28;20661;-93
2022/11/07 01:00:33;;;;;;;13.90;3.80;;;14.20;95.50;;;;;;5001885;28;20210;-93
2022/11/07 01:05:59;;;;;;;7.97;2.73;;;14.20;95.50;;;;;;4996103;28;20967;-91
2022/11/07 01:08:36;;;;;;;14.17;3.97;;;14.10;95.50;;;;;;4995610;28;20195;-93
2022/11/07 01:11:10;;;;;;;14.33;4.40;;;14.10;95.50;;;;;;4998709;28;20227;-94
2022/11/07 01:13:38;;;;;;;14.33;4.50;;;14.20;95.50;;;;;;4997263;28;20203;-90
2022/11/07 01:16:11;;;;;;;14.40;3.93;;;14.20;95.40;;;;;;4997503;28;20208;-94
2022/11/07 01:18:40;;;;;;;15.30;3.93;;;14.20;95.50;;;;;;4991418;28;20233;-93
2022/11/07 01:21:10;;;;;;;15.43;3.70;;;14.20;95.50;;;;;;4998685;28;20212;-93
2022/11/07 01:23:42;;;;;;;11.50;3.00;;;14.20;95.50;;;;;;4997876;28;20209;-93
2022/11/07 01:26:11;;;;;;;15.80;4.30;;;14.10;95.40;;;;;;4996563;28;20209;-92
2022/11/07 01:28:44;;;;;;;14.63;3.77;;;14.20;95.40;;;;;;4996013;28;20281;-94
2022/11/07 01:31:15;;;;;;;11.47;3.47;;;14.20;95.40;;;;;;4992624;28;20737;-94
2022/11/07 01:33:51;;;;;;;16.10;3.97;;;14.20;95.40;;;;;;4993813;28;20213;-93
2022/11/07 01:36:21;;;;;;;10.67;3.53;;;14.20;95.50;;;;;;4989590;28;20206;-93
2022/11/07 01:38:52;;;;;;;11.03;3.33;;;14.20;95.50;;;;;;5001693;28;20248;-93
2022/11/07 01:41:32;;;;;;;17.63;3.63;;;14.20;95.60;;;;;;4992427;28;20608;-95
2022/11/07 01:44:03;;;;;;;8.07;2.97;;;14.20;95.60;;;;;;5000704;28;20793;-93
2022/11/07 01:46:42;;;;;;;12.53;3.37;;;14.20;95.60;;;;;;4994435;28;20217;-93
2022/11/07 01:49:21;;;;;;;7.83;2.77;;;14.30;95.60;;;;;;5004854;28;20231;-94
2022/11/07 01:51:55;;;;;;;11.70;3.10;;;14.30;95.60;;;;;;4996048;28;20296;-93
2022/11/07 01:54:29;;;;;;;8.47;3.40;;;14.30;95.60;;;;;;4999625;28;20192;-93
2022/11/07 01:57:03;;;;;;;7.40;2.50;;;14.30;95.60;;;;;;5000500;28;20298;-94
2022/11/07 01:59:42;;;;;;;14.60;4.53;;;14.30;95.60;;;;;;5009999;28;20526;-94
2022/11/07 02:02:20;;;;;;;9.83;2.50;;;14.30;95.60;;;;;;4997927;28;20215;-93
2022/11/07 02:04:49;;;;;;;9.43;2.30;;;14.30;95.60;;;;;;5002372;28;20286;-92
2022/11/07 02:07:23;;;;;;;15.00;3.37;;;14.30;95.40;;;;;;5001178;28;20320;-93
2022/11/07 02:09:54;;;;;;;9.77;2.93;;;14.30;95.50;;;;;;5003000;28;20208;-94
2022/11/07 02:12:24;;;;;;;10.93;3.07;;;14.30;95.40;;;;;;5001264;28;20239;-93
2022/11/07 02:14:53;;;;;;;13.20;4.07;;;14.30;95.30;;;;;;4999172;28;20191;-93
2022/11/07 02:17:25;;;;;;;10.20;2.93;;;14.30;95.30;;;;;;4998898;28;20220;-94
2022/11/07 02:19:58;;;;;;;17.03;4.10;;;14.40;95.30;;;;;;4999705;28;20559;-92
2022/11/07 02:22:36;;;;;;;16.47;3.23;;;14.30;95.20;;;;;;4999910;28;20215;-92
2022/11/07 02:25:11;;;;;;;11.00;3.33;;;14.40;95.30;;;;;;4996632;28;20239;-94
2022/11/07 02:27:45;;;;;;;12.80;3.20;;;14.40;95.30;;;;;;4994212;28;20207;-93
2022/11/07 02:30:33;;;;;;;15.57;3.23;;;14.30;95.20;;;;;;4997729;28;20204;-93
2022/11/07 02:33:01;;;;;;;11.17;2.73;;;14.40;95.20;;;;;;4996860;28;20223;-91
2022/11/07 02:35:45;;;;;;;8.50;2.87;;;14.40;95.20;;;;;;4997625;28;20212;-93
2022/11/07 02:38:24;;;;;;;11.70;3.13;;;14.40;95.20;;;;;;4999106;28;20208;-91
2022/11/07 02:41:05;;;;;;;15.40;3.30;;;14.40;95.20;;;;;;4990153;28;20205;-94
2022/11/07 02:43:34;;;;;;;16.00;3.77;;;14.40;95.30;;;;;;4987407;28;20790;-93
2022/11/07 02:46:11;;;;;;;15.47;3.60;;;14.40;95.20;;;;;;4998951;28;20236;-93
2022/11/07 02:48:44;;;;;;;8.80;2.77;;;14.40;95.20;;;;;;4985103;28;20316;-94
2022/11/07 02:51:15;;;;;;;16.20;3.73;;;14.40;95.20;;;;;;5006457;28;20215;-94
2022/11/07 02:53:45;;;;;;;15.70;3.30;;;14.40;95.10;;;;;;4999399;28;20207;-94
2022/11/07 02:56:17;;;;;;;10.43;2.73;;;14.40;95.10;;;;;;4989834;28;20216;-93
2022/11/07 02:58:54;;;;;;;9.17;2.80;;;14.40;95.10;;;;;;4998074;28;20279;-93
2022/11/07 03:01:23;;;;;;;11.43;2.67;;;14.40;95.10;;;;;;4996805;28;20201;-93
2022/11/07 03:03:52;;;;;;;8.10;2.40;;;14.40;95.10;;;;;;5001089;28;20818;-94
2022/11/07 03:06:26;;;;;;;9.53;2.37;;;14.40;95.10;;;;;;4986873;28;20227;-93
2022/11/07 03:08:59;;;;;;;14.67;3.70;;;14.40;95.10;;;;;;4999370;28;20236;-93
2022/11/07 03:11:34;;;;;;;10.73;3.23;;;14.40;95.00;;;;;;5000368;28;20205;-94
2022/11/07 03:14:02;;;;;;;17.03;4.13;;;14.40;95.00;;;;;;4990739;28;20200;-92
2022/11/07 03:16:38;;;;;;;9.90;2.57;;;14.40;95.00;;;;;;4998157;28;20677;-92
2022/11/07 03:19:11;;;;;;;12.10;3.30;;;14.40;95.10;;;;;;4980820;28;20229;-94
2022/11/07 03:21:39;;;;;;;18.30;3.70;;;14.40;94.90;;;;;;4978984;28;20221;-94
2022/11/07 03:24:08;;;;;;;19.97;4.33;;;14.40;94.90;;;;;;4998379;28;20425;-93
2022/11/07 03:26:42;;;;;;;11.67;3.47;;;14.40;95.00;;;;;;4990552;28;20936;-94
2022/11/07 03:29:15;;;;;;;15.33;4.17;;;14.40;95.00;;;;;;4996066;28;20960;-94
2022/11/07 03:31:43;;;;;;;15.57;3.60;;;14.40;94.90;;;;;;4994345;28;20220;-94
2022/11/07 03:34:11;;;;;;;16.53;3.47;;;14.50;95.00;;;;;;4996951;28;20727;-94
2022/11/07 03:36:42;;;;;;;13.13;4.10;;;14.40;94.90;;;;;;4993376;28;20645;-93
2022/11/07 03:39:14;;;;;;;18.00;3.30;;;14.50;94.80;;;;;;4997664;28;20211;-93
2022/11/07 03:41:47;;;;;;;12.73;3.77;;;14.50;94.90;;;;;;4995811;28;20208;-93
2022/11/07 03:44:16;;;;;;;13.70;2.93;;;14.50;94.80;;;;;;5004292;28;20204;-93
2022/11/07 03:46:46;;;;;;;17.10;4.63;;;14.50;94.80;;;;;;5009089;28;20191;-93
2022/11/07 03:49:15;;;;;;;10.83;3.70;;;14.50;94.80;;;;;;5014045;28;20210;-94
2022/11/07 03:51:45;;;;;;;9.80;2.73;;;14.40;94.80;;;;;;4999954;28;20212;-93
2022/11/07 03:54:17;;;;;;;14.77;3.80;;;14.50;94.90;;;;;;4998011;28;20774;-93
2022/11/07 03:56:55;;;;;;;15.80;4.03;;;14.50;94.90;;;;;;4995976;28;20217;-91
2022/11/07 03:59:35;;;;;;;21.33;4.03;;;14.50;95.00;;;;;;4989874;28;20554;-93
2022/11/07 04:02:16;;;;;;;16.93;3.90;;;14.50;94.90;;;;;;4999175;28;20225;-93
2022/11/07 04:04:57;;;;;;;17.93;4.33;;;14.50;94.90;;;;;;5001327;28;20700;-94
2022/11/07 04:07:38;;;;;;;15.60;3.27;;;14.50;94.90;;;;;;4989456;28;20195;-93
2022/11/07 04:10:10;;;;;;;11.63;3.77;;;14.50;95.00;;;;;;5002459;28;20256;-93
2022/11/07 04:18:15;;;;;;;27.67;5.17;;;14.50;95.10;;;;;;4993177;28;20230;-93
2022/11/07 04:20:43;;;;;;;14.93;3.93;;;14.50;95.00;;;;;;4998473;28;20330;-92
2022/11/07 04:23:12;;;;;;;14.77;3.67;;;14.50;95.10;;;;;;4999496;28;20202;-94
2022/11/07 04:28:32;;;;;;;13.10;3.20;;;14.50;95.20;;;;;;4983401;28;20805;-95
2022/11/07 04:31:00;;;;;;;11.43;3.33;;;14.50;95.30;;;;;;4995622;28;20213;-93
2022/11/07 04:33:31;;;;;;;14.93;3.90;;;14.50;95.30;;;;;;5001172;28;20208;-92
2022/11/07 04:36:01;;;;;;;12.20;3.20;;;14.50;95.40;;;;;;4995560;28;20262;-95
2022/11/07 04:38:29;;;;;;;14.77;3.40;;;14.50;95.50;;;;;;4996495;28;21066;-94
2022/11/07 04:40:59;;;;;;;11.27;3.23;;;14.50;95.50;;;;;;5002102;28;20225;-93
2022/11/07 04:43:38;;;;;;;14.30;3.00;;;14.50;95.60;;;;;;4991206;28;20206;-94
2022/11/07 04:46:14;;;;;;;8.77;2.77;;;14.50;95.90;;;;;;5009541;28;20236;-94
2022/11/07 04:48:55;;;;;;;10.57;2.60;;;14.50;95.60;;;;;;5017072;28;20195;-95
2022/11/07 04:54:15;;;;;;;10.40;2.77;;;14.50;95.60;;;;;;4999285;28;20224;-96
2022/11/07 04:56:45;;;;;;;12.57;3.83;;;14.50;95.70;;;;;;4997752;28;20212;-94
2022/11/07 04:59:16;;;;;;;12.93;3.57;;;14.50;95.70;;;;;;5001604;28;20638;-95
2022/11/07 05:02:06;;;;;;;19.87;4.33;;;14.50;95.70;;;;;;4999116;28;21057;-95
2022/11/07 05:04:36;;;;;;;13.60;3.70;;;14.50;95.70;;;;;;4999520;28;20207;-95
2022/11/07 05:07:07;;;;;;;9.80;2.67;;;14.50;95.70;;;;;;4986215;28;20307;-95
2022/11/07 05:09:44;;;;;;;17.70;4.23;;;14.50;95.80;;;;;;4990317;28;20286;-96
2022/11/07 05:12:17;;;;;;;14.57;4.20;;;14.50;95.90;;;;;;4983921;28;20262;-95
2022/11/07 05:14:45;;;;;;;12.57;3.70;;;14.40;95.80;;;;;;4995342;28;20201;-93
2022/11/07 05:17:17;;;;;;;11.33;3.23;;;14.50;95.70;;;;;;4999357;28;20216;-95
2022/11/07 05:19:46;;;;;;;12.30;3.77;;;14.50;95.70;;;;;;4985286;28;20209;-94
2022/11/07 05:25:04;;;;;;;19.57;6.03;;;14.50;95.70;;;;;;4993661;28;20211;-96
2022/11/07 05:27:32;;;;;;;9.77;2.73;;;14.50;95.70;;;;;;4995909;28;20210;-96
2022/11/07 05:30:08;;;;;;;12.60;3.37;;;14.50;95.80;;;;;;5000727;28;20343;-96
2022/11/07 05:32:41;;;;;;;18.07;4.93;;;14.50;96.00;;;;;;5002565;28;20203;-96
2022/11/07 05:35:18;;;;;;;12.47;2.60;;;14.50;95.90;;;;;;4982092;28;20229;-95
2022/11/07 05:37:47;;;;;;;10.60;3.30;;;14.50;96.30;;;;;;4998339;28;20303;-95
2022/11/07 05:40:15;;;;;;;15.83;3.63;;;14.50;96.00;;;;;;5006510;28;20204;-95
2022/11/07 05:42:46;;;;;;;17.30;4.57;;;14.50;96.10;;;;;;5010967;28;20179;-95
2022/11/07 05:45:18;;;;;;;14.13;3.30;;;14.50;96.10;;;;;;5005513;28;20228;-95
2022/11/07 05:48:09;;;;;;;13.13;3.60;;;14.50;96.10;;;;;;4986313;28;20234;-96
2022/11/07 05:50:47;;;;;;;12.40;3.87;;;14.50;96.20;;;;;;4991772;28;20204;-95
2022/11/07 05:53:20;;;;;;;16.37;4.27;;;14.60;96.10;;;;;;4998453;28;20196;-95
2022/11/07 05:55:50;;;;;;;13.73;4.17;;;14.60;95.90;;;;;;4982981;28;20276;-94
2022/11/07 05:58:22;;;;;;;11.37;3.50;;;14.60;95.90;;;;;;4998675;28;20400;-96
2022/11/07 06:00:50;;;;;;;12.57;3.73;;;14.60;95.90;;;;;;5003280;28;20212;-96
2022/11/07 06:03:21;;;;;;;10.60;2.83;;;14.50;95.90;;;;;;4988299;28;20214;-96
2022/11/07 06:05:57;;;;;;;13.73;4.13;;;14.60;96.00;;;;;;4996255;28;20240;-96
2022/11/07 06:08:30;;;;;;;15.50;3.80;;;14.60;96.00;;;;;;5004365;28;20233;-96
2022/11/07 06:10:59;;;;;;;12.37;3.30;;;14.60;96.00;;;;;;5003408;28;20219;-95
2022/11/07 06:13:34;;;;;;;14.00;3.67;;;14.60;95.90;;;;;;5003410;28;20226;-96
2022/11/07 06:16:03;;;;;;;10.87;3.10;;;14.60;96.00;;;;;;5003588;28;20285;-96
2022/11/07 06:18:36;;;;;;;13.20;3.13;;;14.60;96.00;;;;;;5004207;28;20294;-95
2022/11/07 06:21:06;;;;;;;11.23;3.10;;;14.60;95.90;;;;;;5002209;28;20209;-95
2022/11/07 06:23:39;;;;;;;15.90;4.40;;;14.60;96.00;;;;;;5002692;28;20226;-94
2022/11/07 06:26:09;;;;;;;16.23;4.63;;;14.60;96.00;;;;;;4997411;28;20266;-95
2022/11/07 06:28:40;;;;;;;13.10;3.70;;;14.70;96.10;;;;;;5001606;28;20543;-95
2022/11/07 06:31:16;;;;;;;17.60;3.03;;;14.70;96.00;;;;;;5004162;28;20259;-96
2022/11/07 06:33:55;;;;;;;16.53;4.97;;;14.70;96.00;;;;;;4998466;28;20223;-95
2022/11/07 06:36:25;;;;;;;13.40;3.73;;;14.70;96.10;;;;;;5001921;28;20290;-96
2022/11/07 06:38:54;;;;;;;17.73;4.10;;;14.70;96.00;;;;;;5004484;28;20282;-95
2022/11/07 06:41:24;;;;;;;13.57;3.60;;;14.70;96.10;;;;;;4999528;28;20226;-95
2022/11/07 06:43:53;;;;;;;16.73;4.40;;;14.70;96.10;;;;;;5001285;28;20789;-95
2022/11/07 06:46:27;;;;;;;10.47;2.93;;;14.70;96.00;;;;;;4988055;28;20264;-96
2022/11/07 06:49:04;;;;;;;13.93;3.90;;;14.70;96.20;;;;;;5001022;28;20253;-94
2022/11/07 06:51:32;;;;;;;15.87;3.70;;;14.70;96.10;;;;;;5000431;28;20240;-94
2022/11/07 06:53:59;;;;;;;13.20;3.80;;;14.70;96.10;;;;;;4999729;28;20217;-95
2022/11/07 06:56:27;;;;;;;13.43;3.07;;;14.70;96.00;;;;;;4996487;28;20615;-94
2022/11/07 06:59:00;;;;;;;10.33;3.87;;;14.70;96.10;;;;;;5001647;28;20210;-96
2022/11/07 07:01:28;;;;;;;14.87;3.83;;;14.80;96.10;;;;;;4999906;28;20239;-94
2022/11/07 07:03:58;;;;;;;15.40;3.67;;;14.80;96.10;;;;;;4997895;28;20205;-92
2022/11/07 07:06:54;;;;;;;14.30;4.33;;;14.70;96.10;;;;;;5000685;28;20249;-96
2022/11/07 07:09:27;;;;;;;18.10;4.87;;;14.80;96.20;;;;;;4994284;28;20215;-93
2022/11/07 07:12:00;;;;;;;17.30;5.23;;;14.80;96.10;;;;;;4989340;28;20209;-94
2022/11/07 07:14:28;;;;;;;16.67;4.60;;;14.80;96.10;;;;;;4988950;28;20260;-93
2022/11/07 07:16:58;;;;;;;12.33;3.80;;;14.80;96.10;;;;;;4993997;28;20216;-94
2022/11/07 07:19:28;;;;;;;14.50;3.80;;;14.80;96.20;;;;;;4977092;28;20255;-93
2022/11/07 07:22:04;;;;;;;16.63;4.70;;;14.80;96.10;;;;;;4987313;28;20265;-94
2022/11/07 07:24:31;;;;;;;19.07;4.87;;;14.80;96.20;;;;;;4979996;28;20296;-93
2022/11/07 07:27:05;;;;;;;17.33;4.60;;;14.90;96.20;;;;;;4990258;28;20237;-93
2022/11/07 07:29:34;;;;;;;13.60;3.90;;;14.80;96.20;;;;;;4976149;28;20208;-93
2022/11/07 07:32:04;;;;;;;17.30;4.83;;;14.90;96.30;;;;;;4991579;28;20201;-93
2022/11/07 07:34:33;;;;;;;11.60;2.60;;;14.90;96.20;;;;;;4992573;28;20276;-93
2022/11/07 07:37:05;;;;;;;8.07;2.53;;;14.90;96.20;;;;;;4986829;28;20218;-92
2022/11/07 07:39:35;;;;;;;13.07;4.20;;;14.90;96.20;;;;;;4993388;28;20208;-92
2022/11/07 07:42:04;;;;;;;10.43;3.57;;;15.00;96.20;;;;;;4988649;28;20205;-93
2022/11/07 07:44:39;;;;;;;9.30;2.77;;;15.00;96.20;;;;;;4979571;28;20204;-92
2022/11/07 07:47:13;;;;;;;12.93;3.53;;;15.00;96.30;;;;;;4990026;28;20229;-94
2022/11/07 07:49:47;;;;;;;18.70;5.50;;;15.00;96.20;;;;;;4986172;28;20214;-94
2022/11/07 07:52:26;;;;;;;18.63;4.23;;;15.00;96.10;;;;;;4988115;28;20209;-92
2022/11/07 07:54:54;;;;;;;12.13;3.93;;;15.10;96.30;;;;;;4977327;28;20214;-92
2022/11/07 07:57:22;;;;;;;19.07;5.17;;;15.10;96.20;;;;;;4982209;28;20684;-93
2022/11/07 07:59:52;;;;;;;14.13;3.60;;;15.10;96.20;;;;;;4991067;28;20264;-93
2022/11/07 08:02:22;;;;;;;16.00;4.27;;;15.10;96.20;;;;;;4986053;28;20647;-93
2022/11/07 08:04:55;;;;;;;14.77;3.80;;;15.10;96.30;;;;;;4991943;28;20220;-93
2022/11/07 08:07:27;;;;;;;19.87;4.77;;;15.10;96.30;;;;;;4995783;28;20229;-93
2022/11/07 08:09:59;;;;;;;14.33;3.63;;;15.10;96.30;;;;;;4996342;28;20204;-93
2022/11/07 08:12:31;;;;;;;20.70;5.53;;;15.10;96.30;;;;;;4980012;28;20287;-93
2022/11/07 08:14:58;;;;;;;23.90;5.67;;;15.20;96.40;;;;;;4993740;28;20240;-92
2022/11/07 08:17:25;;;;;;;14.17;3.20;;;15.20;96.30;;;;;;4991194;28;20209;-93
2022/11/07 08:19:54;;;;;;;13.10;3.67;;;15.20;96.40;;;;;;4996055;28;20214;-94
2022/11/07 08:22:25;;;;;;;9.70;2.90;;;15.20;96.30;;;;;;4995491;28;20216;-94
2022/11/07 08:24:52;;;;;;;11.13;3.43;;;15.20;96.40;;;;;;4995554;28;20204;-94
2022/11/07 08:27:22;;;;;;;18.97;4.60;;;15.20;96.30;;;;;;4995317;28;20265;-93
2022/11/07 08:29:53;;;;;;;12.50;3.27;;;15.30;96.40;;;;;;5000205;28;20216;-95
2022/11/07 08:32:22;;;;;;;16.10;5.03;;;15.30;96.40;;;;;;4994445;28;20240;-94
2022/11/07 08:34:53;;;;;;;21.63;4.77;;;15.30;96.30;;;;;;4993363;28;20235;-93
2022/11/07 08:37:27;;;;;;;13.10;3.83;;;15.30;96.40;;;;;;4992849;28;20215;-92
2022/11/07 08:39:55;;;;;;;16.70;5.17;;;15.30;96.30;;;;;;4982371;28;20236;-92
2022/11/07 08:42:23;;;;;;;17.67;5.00;;;15.40;96.30;;;;;;4991665;28;20582;-94
2022/11/07 08:44:50;;;;;;;12.37;3.87;;;15.40;96.30;;;;;;4993009;28;20214;-92
2022/11/07 08:47:18;;;;;;;14.10;4.03;;;15.40;96.20;;;;;;4992775;28;20247;-91
2022/11/07 08:49:47;;;;;;;15.23;4.17;;;15.40;96.20;;;;;;4990537;28;20255;-93
2022/11/07 08:52:17;;;;;;;13.30;3.80;;;15.40;96.20;;;;;;4996659;28;20234;-92
2022/11/07 08:54:45;;;;;;;17.80;5.00;;;15.50;96.20;;;;;;4993388;28;20213;-94
2022/11/07 08:57:15;;;;;;;17.23;6.43;;;15.50;96.30;;;;;;5007807;28;20216;-92
2022/11/07 08:59:43;;;;;;;17.80;9.60;;;15.50;96.20;;;;;;4996273;28;20192;-93
2022/11/07 09:02:12;;;;;;;23.93;8.17;;;15.60;96.30;;;;;;4996379;28;20210;-94
2022/11/07 09:04:41;;;;;;;10.47;3.87;;;15.60;96.30;;;;;;4994828;28;20225;-93
2022/11/07 09:07:11;;;;;;;15.63;4.00;;;15.60;96.30;;;;;;4992505;28;20232;-93
2022/11/07 09:09:39;;;;;;;16.77;4.33;;;15.60;96.30;;;;;;4989142;28;20226;-92
2022/11/07 09:12:11;;;;;;;13.17;5.00;;;15.70;96.30;;;;;;4987368;28;20204;-94
2022/11/07 09:14:42;;;;;;;16.60;4.73;;;15.70;96.30;;;;;;4993632;28;20324;-93
2022/11/07 09:17:11;;;;;;;14.40;4.47;;;15.80;96.30;;;;;;4994805;28;20301;-94
2022/11/07 09:19:39;;;;;;;14.90;5.33;;;15.80;96.30;;;;;;4990787;28;20262;-93
2022/11/07 09:22:06;;;;;;;15.93;4.80;;;15.80;96.30;;;;;;4995496;28;20244;-92
2022/11/07 09:24:34;;;;;;;16.93;4.97;;;15.90;96.40;;;;;;5000326;28;20199;-93
2022/11/07 09:27:01;;;;;;;22.80;5.77;;;15.90;96.20;;;;;;5006558;28;20240;-93
2022/11/07 09:29:36;;;;;;;17.03;4.63;;;16.00;96.30;;;;;;4991056;28;20205;-93
2022/11/07 09:32:05;;;;;;;19.67;4.17;;;16.00;96.10;;;;;;4993641;28;20212;-93
2022/11/07 09:34:33;;;;;;;13.33;3.60;;;16.10;96.10;;;;;;4992524;28;20657;-92
2022/11/07 09:37:06;;;;;;;13.50;3.83;;;16.10;96.10;;;;;;4994813;28;20210;-93
2022/11/07 09:39:36;;;;;;;18.40;4.27;;;16.20;96.00;;;;;;4988384;28;20218;-93
2022/11/07 09:42:10;;;;;;;10.83;3.00;;;16.20;95.90;;;;;;4992140;28;20222;-92
2022/11/07 09:44:51;;;;;;;11.83;3.33;;;16.30;95.70;;;;;;4991167;28;20232;-93
2022/11/07 09:47:23;;;;;;;17.03;4.33;;;16.30;95.70;;;;;;4988122;28;20284;-94
2022/11/07 09:49:56;;;;;;;15.30;3.73;;;16.40;95.80;;;;;;4987272;28;20734;-92
2022/11/07 09:52:48;;;;;;;14.87;4.10;;;16.40;95.70;;;;;;4991823;28;20211;-94
2022/11/07 09:55:21;;;;;;;14.37;3.90;;;16.40;95.90;;;;;;4989625;28;20213;-94
2022/11/07 09:57:50;;;;;;;16.60;4.20;;;16.50;95.90;;;;;;4991281;28;20210;-93
2022/11/07 10:00:21;;;;;;;14.70;4.43;;;16.50;95.80;;;;;;4991565;28;20306;-92
2022/11/07 10:02:57;;;;;;;13.63;3.47;;;16.60;95.70;;;;;;4993022;28;20250;-94
2022/11/07 10:05:31;;;;;;;14.23;3.30;;;16.70;95.20;;;;;;4986510;28;20262;-92
2022/11/07 10:08:09;;;;;;;13.80;3.90;;;16.80;95.00;;;;;;4981260;28;20281;-94
2022/11/07 10:10:49;;;;;;;12.60;4.17;;;16.80;94.60;;;;;;4993857;28;20319;-91
2022/11/07 10:13:52;;;;;;;10.90;3.20;;;16.90;94.30;;;;;;4998818;28;20234;-91
2022/11/07 10:16:33;;;;;;;16.80;4.70;;;17.00;94.20;;;;;;4926159;29;20265;-92
2022/11/07 10:19:18;;;;;;;10.50;3.40;;;17.00;93.90;;;;;;4921115;29;20224;-92
2022/11/07 10:22:04;;;;;;;11.63;4.00;;;17.00;93.80;;;;;;4980634;28;20210;-93
2022/11/07 10:24:42;;;;;;;17.90;5.30;;;17.00;93.90;;;;;;5012336;28;20191;-94
2022/11/07 10:27:16;;;;;;;15.50;3.80;;;17.00;93.90;;;;;;4995361;28;20238;-93
2022/11/07 10:29:51;;;;;;;17.37;4.47;;;17.00;94.20;;;;;;4981754;28;20209;-93
2022/11/07 10:32:35;;;;;;;12.30;3.77;;;17.00;93.90;;;;;;4988219;28;20205;-93
2022/11/07 10:35:19;;;;;;;13.23;3.67;;;17.00;93.90;;;;;;4987103;28;20210;-93
2022/11/07 10:37:54;;;;;;;12.60;4.40;;;17.00;94.10;;;;;;4991176;28;20210;-94
2022/11/07 10:40:24;;;;;;;8.80;2.80;;;17.10;93.60;;;;;;4980334;28;20235;-93
2022/11/07 10:42:55;;;;;;;15.37;3.60;;;17.10;93.90;;;;;;4985885;28;20207;-94
2022/11/07 10:45:28;;;;;;;20.33;3.90;;;17.10;93.60;;;;;;4993835;28;20212;-93
2022/11/07 10:48:03;;;;;;;15.00;3.90;;;17.20;93.70;;;;;;4993389;28;20712;-92
2022/11/07 10:50:31;;;;;;;12.27;3.87;;;17.20;93.30;;;;;;4994120;28;20570;-93
2022/11/07 10:53:08;;;;;;;13.37;3.60;;;17.20;93.50;;;;;;4984872;28;20216;-92
2022/11/07 10:55:48;;;;;;;18.60;4.97;;;17.20;93.60;;;;;;4991716;28;20217;-93
2022/11/07 10:58:24;;;;;;;11.83;3.47;;;17.20;93.20;;;;;;4993248;28;20705;-95
2022/11/07 11:01:05;;;;;;;16.30;3.47;;;17.30;93.00;;;;;;4992455;28;20203;-92
2022/11/07 11:03:41;;;;;;;13.87;4.17;;;17.30;93.20;;;;;;4991895;28;20208;-93
2022/11/07 11:09:14;;;;;;;11.53;3.07;;;17.30;92.90;;;;;;5007939;28;20242;-93
2022/11/07 11:11:51;;;;;;;11.20;3.50;;;17.30;93.00;;;;;;5017127;28;20217;-92
2022/11/07 11:14:21;;;;;;;15.17;4.20;;;17.30;92.90;;;;;;5026661;28;20241;-93
2022/11/07 11:16:54;;;;;;;13.07;3.17;;;17.40;92.70;;;;;;5024501;28;20198;-94
2022/11/07 11:19:29;;;;;;;9.87;2.43;;;17.40;92.90;;;;;;5032750;28;20193;-94
2022/11/07 11:22:06;;;;;;;10.97;2.80;;;17.40;92.80;;;;;;5020068;28;20217;-93
2022/11/07 11:24:38;;;;;;;12.43;3.07;;;17.30;93.20;;;;;;5016979;28;20202;-93
2022/11/07 11:27:12;;;;;;;14.37;3.50;;;17.40;92.90;;;;;;5016153;28;20241;-91
2022/11/07 11:29:45;;;;;;;12.30;3.70;;;17.40;92.90;;;;;;5006968;28;20254;-94
2022/11/07 11:32:21;;;;;;;18.47;4.40;;;17.40;92.90;;;;;;5006448;28;20208;-93
2022/11/07 11:35:20;;;;;;;16.27;4.97;;;17.40;92.90;;;;;;5016541;28;20694;-93
2022/11/07 11:37:57;;;;;;;10.73;3.20;;;17.50;92.60;;;;;;5016612;28;20206;-92
2022/11/07 11:40:25;;;;;;;14.63;3.33;;;17.40;92.50;;;;;;5016045;28;20266;-93
2022/11/07 11:43:00;;;;;;;15.27;4.33;;;17.40;92.80;;;;;;5022389;28;20211;-93
2022/11/07 11:45:36;;;;;;;17.53;4.30;;;17.40;92.50;;;;;;5022044;28;20195;-93
2022/11/07 11:48:16;;;;;;;8.60;2.77;;;17.50;92.90;;;;;;5023230;28;20230;-94
2022/11/07 11:50:58;;;;;;;14.90;3.87;;;17.50;92.90;;;;;;5021871;28;20236;-94
2022/11/07 11:53:27;;;;;;;13.60;4.13;;;17.50;92.60;;;;;;5012643;28;20205;-93
2022/11/07 11:56:17;;;;;;;10.43;3.00;;;17.50;93.00;;;;;;5021521;28;20203;-92
2022/11/07 11:59:03;;;;;;;22.03;3.87;;;17.50;92.40;;;;;;5010406;28;20205;-93
2022/11/07 12:01:37;;;;;;;25.70;5.40;;;17.50;92.70;;;;;;5012688;28;20212;-94
2022/11/07 12:04:36;;;;;;;14.37;4.70;;;17.50;92.70;;;;;;5009236;28;20202;-93
2022/11/07 12:07:20;;;;;;;20.03;4.40;;;17.50;92.60;;;;;;5009683;28;20204;-94
2022/11/07 12:09:55;;;;;;;15.67;4.47;;;17.50;92.40;;;;;;5025130;28;20682;-93
2022/11/07 12:12:31;;;;;;;22.70;5.17;;;17.50;92.60;;;;;;5027828;28;20217;-94
2022/11/07 12:15:27;;;;;;;35.17;7.57;;;17.50;92.60;;;;;;5031876;28;20206;-92
2022/11/07 12:18:05;;;;;;;17.50;4.03;;;17.50;92.40;;;;;;4999939;28;20218;-93
2022/11/07 12:23:24;;;;;;;16.97;4.63;;;17.50;92.90;;;;;;4978859;28;20237;-92
2022/11/07 12:26:06;;;;;;;13.93;4.07;;;17.50;92.60;;;;;;4980638;28;20281;-95
2022/11/07 12:28:44;;;;;;;17.10;4.57;;;17.50;92.60;;;;;;4980569;28;20226;-95
2022/11/07 12:31:30;;;;;;;8.93;2.97;;;17.50;92.30;;;;;;4971620;28;20277;-95
2022/11/07 12:34:14;;;;;;;15.27;4.47;;;17.50;92.40;;;;;;4974213;28;20231;-95
2022/11/07 12:37:01;;;;;;;23.40;5.30;;;17.50;92.40;;;;;;4984052;28;20215;-94
2022/11/07 12:39:57;;;;;;;9.57;3.30;;;17.50;92.50;;;;;;4979745;28;20214;-91
2022/11/07 12:42:38;;;;;;;12.23;3.13;;;17.50;92.60;;;;;;4984780;28;20228;-93
2022/11/07 12:45:16;;;;;;;11.60;3.07;;;17.50;92.60;;;;;;4979080;28;20213;-94
2022/11/07 12:48:04;;;;;;;17.17;4.87;;;17.60;92.50;;;;;;4977423;28;20240;-94
2022/11/07 12:50:47;;;;;;;12.57;4.13;;;17.60;92.60;;;;;;4977742;28;20245;-93
2022/11/07 12:53:24;;;;;;;15.20;3.57;;;17.50;92.60;;;;;;4984676;28;20273;-94
2022/11/07 12:55:59;;;;;;;12.77;3.10;;;17.60;92.70;;;;;;4981482;28;20228;-93
2022/11/07 12:58:34;;;;;;;11.10;3.10;;;17.60;92.60;;;;;;4985840;28;20204;-94
2022/11/07 13:01:05;;;;;;;14.50;3.70;;;17.60;92.60;;;;;;4989588;28;20264;-94
2022/11/07 13:04:03;;;;;;;13.10;3.67;;;17.60;92.70;;;;;;4992704;28;20203;-95
2022/11/07 13:06:37;;;;;;;10.00;3.33;;;17.60;92.60;;;;;;4989281;28;20226;-92
2022/11/07 13:09:24;;;;;;;9.03;2.93;;;17.50;92.70;;;;;;4996593;28;20229;-95
2022/11/07 13:12:05;;;;;;;11.57;3.20;;;17.60;92.80;;;;;;4993949;28;20214;-95
2022/11/07 13:14:39;;;;;;;13.83;3.53;;;17.60;92.90;;;;;;4979418;28;20236;-91
2022/11/07 13:17:23;;;;;;;14.83;3.33;;;17.60;92.90;;;;;;4974622;28;20215;-94
2022/11/07 13:20:03;;;;;;;13.70;4.13;;;17.60;92.90;;;;;;4977299;28;20196;-93
2022/11/07 13:22:36;;;;;;;12.87;4.07;;;17.60;92.90;;;;;;4980764;28;20220;-94
2022/11/07 13:25:27;;;;;;;10.67;3.20;;;17.60;93.00;;;;;;4986658;28;20199;-93
2022/11/07 13:28:19;;;;;;;13.17;3.33;;;17.60;93.10;;;;;;4988974;28;20224;-94
2022/11/07 13:30:57;;;;;;;10.57;3.10;;;17.60;93.00;;;;;;4980607;28;20576;-93
2022/11/07 13:33:30;;;;;;;13.13;3.20;;;17.60;93.00;;;;;;4979458;28;20220;-94